Time;durP1;ratioP1;P1;durP2;ratioP2;P2;SDS_P1;SDS_P2;PMS_P1;PMS_P2;Temp;Humidity;BMP_temperature;BMP_pressure;BME280_temperature;BME280_humidity;BME280_pressure;Samples;Min_cycle;Max_cycle;Signal;HPM_P1;HPM_P2
2023/10/04 00:02:30;;;;;;;5.37;3.87;;;13.40;75.60;;;;;;6278107;28;20620;-79
2023/10/04 00:05:36;;;;;;;4.23;3.87;;;13.30;75.30;;;;;;6281943;28;20237;-81
2023/10/04 00:08:39;;;;;;;5.17;3.50;;;13.30;75.40;;;;;;6282144;28;20414;-81
2023/10/04 00:11:43;;;;;;;4.10;3.70;;;13.10;75.50;;;;;;6289867;28;20709;-79
2023/10/04 00:14:46;;;;;;;5.30;3.80;;;13.10;75.50;;;;;;6283074;28;20237;-81
2023/10/04 00:17:52;;;;;;;3.90;3.63;;;13.10;75.40;;;;;;6280692;28;20715;-80
2023/10/04 00:20:56;;;;;;;7.50;4.10;;;13.10;75.60;;;;;;6289538;28;20236;-81
2023/10/04 00:24:00;;;;;;;6.20;3.93;;;13.00;75.30;;;;;;6278125;28;20245;-81
2023/10/04 00:27:04;;;;;;;6.17;3.67;;;13.00;75.10;;;;;;6278240;28;20245;-79
2023/10/04 00:30:15;;;;;;;10.03;4.30;;;13.00;75.00;;;;;;6282934;28;20226;-82
2023/10/04 00:33:22;;;;;;;5.57;3.60;;;13.00;75.00;;;;;;6288536;28;20620;-81
2023/10/04 00:36:26;;;;;;;6.97;3.67;;;13.00;75.20;;;;;;6280190;28;20233;-79
2023/10/04 00:39:29;;;;;;;5.13;3.90;;;12.90;75.40;;;;;;6282995;28;20236;-82
2023/10/04 00:42:32;;;;;;;6.37;3.70;;;12.90;75.40;;;;;;6288111;28;20271;-80
2023/10/04 00:45:36;;;;;;;4.20;4.00;;;12.90;75.20;;;;;;6280107;28;20233;-81
2023/10/04 00:48:41;;;;;;;4.37;4.00;;;12.90;75.50;;;;;;6287654;28;20233;-81
2023/10/04 00:51:46;;;;;;;7.13;3.80;;;12.80;75.50;;;;;;6288522;28;20316;-82
2023/10/04 00:54:50;;;;;;;3.90;3.20;;;12.70;75.80;;;;;;6278559;28;20871;-82
2023/10/04 00:57:55;;;;;;;5.77;4.00;;;12.70;76.00;;;;;;6288305;28;20399;-79
2023/10/04 01:00:59;;;;;;;5.33;3.93;;;12.70;76.20;;;;;;6283214;28;20241;-81
2023/10/04 01:04:05;;;;;;;4.87;4.00;;;12.60;76.40;;;;;;6283392;28;20256;-79
2023/10/04 01:07:08;;;;;;;4.23;3.93;;;12.50;76.60;;;;;;6281052;28;20748;-80
2023/10/04 01:10:15;;;;;;;5.97;3.80;;;12.50;76.70;;;;;;6271681;28;20355;-79
2023/10/04 01:13:21;;;;;;;4.03;3.73;;;12.50;76.80;;;;;;6287338;28;20233;-83
2023/10/04 01:16:25;;;;;;;4.67;3.73;;;12.50;77.00;;;;;;6281584;28;20928;-80
2023/10/04 01:19:30;;;;;;;6.17;4.20;;;12.50;77.00;;;;;;6285509;28;20324;-80
2023/10/04 01:22:34;;;;;;;4.70;3.80;;;12.50;76.90;;;;;;6287775;28;20675;-84
2023/10/04 01:25:41;;;;;;;5.63;4.17;;;12.50;77.10;;;;;;6287148;28;20590;-82
2023/10/04 01:28:46;;;;;;;8.63;3.63;;;12.50;77.10;;;;;;6272724;28;20324;-81
2023/10/04 01:31:49;;;;;;;4.00;3.57;;;12.50;77.20;;;;;;6281248;28;20233;-80
2023/10/04 01:34:52;;;;;;;10.70;4.47;;;12.50;77.40;;;;;;6278771;28;20312;-81
2023/10/04 01:37:57;;;;;;;5.47;4.00;;;12.40;77.50;;;;;;6278632;28;20835;-80
2023/10/04 01:41:04;;;;;;;5.37;4.20;;;12.40;77.70;;;;;;6279195;28;20228;-80
2023/10/04 01:44:10;;;;;;;6.00;4.33;;;12.30;77.80;;;;;;6282642;28;20233;-81
2023/10/04 01:47:14;;;;;;;5.77;4.13;;;12.30;77.80;;;;;;6286781;28;20291;-80
2023/10/04 01:50:17;;;;;;;5.87;4.13;;;12.30;77.70;;;;;;6274603;28;20237;-80
2023/10/04 01:53:23;;;;;;;4.97;4.40;;;12.30;77.80;;;;;;6280549;28;20241;-82
2023/10/04 01:56:28;;;;;;;4.97;4.43;;;12.20;77.90;;;;;;6277951;28;20257;-78
2023/10/04 01:59:32;;;;;;;6.97;4.30;;;12.20;77.90;;;;;;6285537;28;20229;-80
2023/10/04 02:02:35;;;;;;;5.43;4.10;;;12.20;78.00;;;;;;6286817;28;20723;-80
2023/10/04 02:05:40;;;;;;;8.63;4.10;;;12.10;78.10;;;;;;6284688;28;20225;-82
2023/10/04 02:08:45;;;;;;;4.70;3.80;;;12.10;78.20;;;;;;6279979;28;20636;-80
2023/10/04 02:11:49;;;;;;;6.20;3.77;;;12.10;78.40;;;;;;6285911;28;20248;-80
2023/10/04 02:14:53;;;;;;;7.07;4.07;;;12.10;78.40;;;;;;6281778;28;20255;-82
2023/10/04 02:17:58;;;;;;;5.27;4.00;;;12.10;78.50;;;;;;6287312;28;20302;-81
2023/10/04 02:21:02;;;;;;;7.93;4.23;;;12.10;78.50;;;;;;6287562;28;20229;-82
2023/10/04 02:24:09;;;;;;;5.47;4.10;;;12.10;78.50;;;;;;6280914;28;20264;-82
2023/10/04 02:27:18;;;;;;;7.27;4.10;;;12.10;78.60;;;;;;6285886;28;20766;-80
2023/10/04 02:30:26;;;;;;;8.57;4.90;;;12.10;78.20;;;;;;6287293;28;20339;-82
2023/10/04 02:33:33;;;;;;;9.47;4.20;;;12.10;78.40;;;;;;6279494;28;20412;-80
2023/10/04 02:36:37;;;;;;;4.80;3.93;;;12.10;78.60;;;;;;6273573;28;20313;-82
2023/10/04 02:39:44;;;;;;;5.03;4.20;;;12.10;78.60;;;;;;6286601;28;20930;-82
2023/10/04 02:42:47;;;;;;;7.17;4.27;;;12.20;78.40;;;;;;6285890;28;20244;-82
2023/10/04 02:45:52;;;;;;;5.87;4.50;;;12.20;78.20;;;;;;6277884;28;20237;-82
2023/10/04 02:48:55;;;;;;;5.57;4.47;;;12.10;78.10;;;;;;6290440;28;20233;-80
2023/10/04 02:51:58;;;;;;;5.73;4.23;;;12.10;78.00;;;;;;6282664;28;20279;-82
2023/10/04 02:55:03;;;;;;;4.67;4.37;;;12.10;77.90;;;;;;6287687;28;20236;-83
2023/10/04 02:58:07;;;;;;;6.77;4.93;;;12.10;78.00;;;;;;6286384;28;20240;-80
2023/10/04 03:01:20;;;;;;;6.13;4.60;;;12.10;78.10;;;;;;6282331;28;20749;-82
2023/10/04 03:04:23;;;;;;;8.07;5.10;;;12.10;77.90;;;;;;6275274;28;20233;-82
2023/10/04 03:07:27;;;;;;;5.90;5.27;;;12.10;78.00;;;;;;6287150;28;20248;-78
2023/10/04 03:10:33;;;;;;;6.83;5.07;;;12.10;77.90;;;;;;6282369;28;20248;-82
2023/10/04 03:13:37;;;;;;;10.90;5.00;;;12.20;77.70;;;;;;6274268;28;20639;-77
2023/10/04 03:16:42;;;;;;;5.57;4.90;;;12.20;77.60;;;;;;6289818;28;20248;-79
2023/10/04 03:19:47;;;;;;;6.73;5.17;;;12.20;77.70;;;;;;6290610;28;20633;-78
2023/10/04 03:22:55;;;;;;;8.93;5.73;;;12.20;77.70;;;;;;6272665;28;20423;-81
2023/10/04 03:26:01;;;;;;;5.80;5.23;;;12.20;77.60;;;;;;6282706;28;20240;-83
2023/10/04 03:29:06;;;;;;;7.27;5.97;;;12.20;77.50;;;;;;6287842;28;20333;-81
2023/10/04 03:32:10;;;;;;;6.80;5.33;;;12.20;77.70;;;;;;6274846;28;20740;-81
2023/10/04 03:35:14;;;;;;;6.90;5.20;;;12.20;77.70;;;;;;6272087;28;20237;-82
2023/10/04 03:38:19;;;;;;;7.67;5.60;;;12.20;77.80;;;;;;6289223;28;20343;-81
2023/10/04 03:41:23;;;;;;;6.77;5.80;;;12.20;77.60;;;;;;6267075;28;20241;-79
2023/10/04 03:44:27;;;;;;;5.93;5.43;;;12.20;77.50;;;;;;6284638;28;20234;-82
2023/10/04 03:47:32;;;;;;;5.90;5.43;;;12.20;77.50;;;;;;6292904;28;20241;-78
2023/10/04 03:50:36;;;;;;;7.33;5.60;;;12.20;77.30;;;;;;6281257;28;20282;-81
2023/10/04 03:53:42;;;;;;;8.63;5.40;;;12.30;77.40;;;;;;6284778;28;20237;-81
2023/10/04 03:56:46;;;;;;;7.40;5.60;;;12.30;77.40;;;;;;6281346;28;20247;-81
2023/10/04 03:59:51;;;;;;;6.70;6.10;;;12.30;77.40;;;;;;6269801;28;20277;-82
2023/10/04 04:02:55;;;;;;;6.50;5.83;;;12.20;77.30;;;;;;6285095;28;20660;-81
2023/10/04 04:05:58;;;;;;;6.20;5.67;;;12.20;77.20;;;;;;6281339;28;20229;-80
2023/10/04 04:09:06;;;;;;;6.60;5.83;;;12.20;77.50;;;;;;6280093;28;21894;-82
2023/10/04 04:12:11;;;;;;;9.47;6.63;;;12.20;77.50;;;;;;6284503;28;20609;-80
2023/10/04 04:15:15;;;;;;;8.23;5.63;;;12.20;77.40;;;;;;6281377;28;20237;-79
2023/10/04 04:18:20;;;;;;;6.67;5.60;;;12.20;77.50;;;;;;6275648;28;20225;-79
2023/10/04 04:21:29;;;;;;;8.50;6.03;;;12.20;77.20;;;;;;6281566;28;20241;-83
2023/10/04 04:24:32;;;;;;;6.60;5.97;;;12.20;77.20;;;;;;6278895;28;20617;-80
2023/10/04 04:27:37;;;;;;;11.33;5.97;;;12.20;77.20;;;;;;6277542;28;20376;-84
2023/10/04 04:30:40;;;;;;;5.80;5.40;;;12.20;77.30;;;;;;6288887;28;20261;-81
2023/10/04 04:33:46;;;;;;;20.67;6.17;;;12.10;77.30;;;;;;6274753;28;20315;-81
2023/10/04 04:36:49;;;;;;;8.33;5.87;;;12.20;77.50;;;;;;6268727;28;20239;-78
2023/10/04 04:39:52;;;;;;;7.17;6.13;;;12.20;77.40;;;;;;6274185;28;20250;-81
2023/10/04 04:43:14;;;;;;;11.47;5.93;;;12.20;77.20;;;;;;6280494;28;20607;-79
2023/10/04 04:46:18;;;;;;;7.23;5.23;;;12.20;77.00;;;;;;6284577;28;20368;-80
2023/10/04 04:49:22;;;;;;;8.27;5.70;;;12.20;77.10;;;;;;6277950;28;20244;-82
2023/10/04 04:52:25;;;;;;;6.47;5.37;;;12.20;77.10;;;;;;6278868;28;20238;-79
2023/10/04 04:55:28;;;;;;;6.43;5.70;;;12.20;77.10;;;;;;6281828;28;20318;-80
2023/10/04 04:58:36;;;;;;;6.00;5.43;;;12.20;77.10;;;;;;6281646;28;20234;-81
2023/10/04 05:01:39;;;;;;;7.83;5.10;;;12.10;77.20;;;;;;6276164;28;20237;-80
2023/10/04 05:04:43;;;;;;;8.63;5.83;;;12.10;77.20;;;;;;6281182;28;20237;-78
2023/10/04 05:07:49;;;;;;;5.73;5.17;;;12.10;77.30;;;;;;6280720;28;20310;-78
2023/10/04 05:10:54;;;;;;;7.87;5.23;;;12.10;77.20;;;;;;6279677;28;20237;-78
2023/10/04 05:13:59;;;;;;;9.20;5.43;;;12.10;77.30;;;;;;6291395;28;20237;-81
2023/10/04 05:17:02;;;;;;;6.17;5.10;;;12.10;77.40;;;;;;6276328;28;20275;-80
2023/10/04 05:20:13;;;;;;;6.87;4.97;;;12.10;77.40;;;;;;6282306;28;20234;-79
2023/10/04 05:23:18;;;;;;;10.27;5.17;;;12.00;77.20;;;;;;6283882;28;20242;-78
2023/10/04 05:26:21;;;;;;;7.37;5.07;;;12.10;77.20;;;;;;6280684;28;20233;-80
2023/10/04 05:29:26;;;;;;;8.87;5.73;;;12.10;77.10;;;;;;6281120;28;20447;-77
2023/10/04 05:32:30;;;;;;;6.40;5.13;;;12.10;77.20;;;;;;6282038;28;20226;-79
2023/10/04 05:35:33;;;;;;;8.40;5.10;;;12.10;77.00;;;;;;6283762;28;20236;-79
2023/10/04 05:38:36;;;;;;;4.80;4.50;;;12.10;77.00;;;;;;6295061;28;20236;-79
2023/10/04 05:41:39;;;;;;;9.40;5.53;;;12.20;77.00;;;;;;6284995;28;20272;-78
2023/10/04 05:44:44;;;;;;;6.07;5.47;;;12.20;76.70;;;;;;6285072;28;20245;-77
2023/10/04 05:47:48;;;;;;;9.20;5.10;;;12.20;76.50;;;;;;6287029;28;20246;-77
2023/10/04 05:50:54;;;;;;;6.70;5.33;;;12.20;76.60;;;;;;6280519;28;20238;-76
2023/10/04 05:53:57;;;;;;;8.50;4.97;;;12.20;76.90;;;;;;6281241;28;20324;-77
2023/10/04 05:57:02;;;;;;;7.00;5.03;;;12.20;76.90;;;;;;6283808;28;20241;-76
2023/10/04 06:00:23;;;;;;;6.10;4.30;;;12.20;76.60;;;;;;6285175;28;20901;-80
2023/10/04 06:03:27;;;;;;;6.30;4.47;;;12.20;76.80;;;;;;6277679;28;20676;-78
2023/10/04 06:06:34;;;;;;;5.10;4.60;;;12.30;76.80;;;;;;6279406;28;20233;-80
2023/10/04 06:09:42;;;;;;;8.47;7.50;;;12.30;76.70;;;;;;6280371;28;20240;-80
2023/10/04 06:12:46;;;;;;;5.20;4.70;;;12.40;76.50;;;;;;6283887;28;20700;-77
2023/10/04 06:15:53;;;;;;;5.63;5.00;;;12.40;76.10;;;;;;6284747;28;20285;-81
2023/10/04 06:18:58;;;;;;;4.70;4.27;;;12.30;76.40;;;;;;6280442;28;20234;-79
2023/10/04 06:22:02;;;;;;;13.37;4.87;;;12.40;76.30;;;;;;6280936;28;20229;-77
2023/10/04 06:25:06;;;;;;;4.97;4.57;;;12.40;76.20;;;;;;6282974;28;20264;-80
2023/10/04 06:28:10;;;;;;;6.80;4.73;;;12.40;76.00;;;;;;6275351;28;20314;-78
2023/10/04 06:31:15;;;;;;;6.97;4.37;;;12.50;76.00;;;;;;6285535;28;20326;-82
2023/10/04 06:34:18;;;;;;;6.10;5.13;;;12.50;76.00;;;;;;6276691;28;20328;-79
2023/10/04 06:37:23;;;;;;;5.10;4.70;;;12.50;75.70;;;;;;6274974;28;20267;-78
2023/10/04 06:40:28;;;;;;;7.30;4.40;;;12.50;75.70;;;;;;6283815;28;20228;-77
2023/10/04 06:43:31;;;;;;;4.70;4.00;;;12.70;75.60;;;;;;6282095;28;20233;-81
2023/10/04 06:46:36;;;;;;;5.70;4.40;;;12.80;75.30;;;;;;6283721;28;20314;-78
2023/10/04 06:49:39;;;;;;;5.13;4.67;;;12.80;75.20;;;;;;6280012;28;20251;-79
2023/10/04 06:52:43;;;;;;;4.80;4.40;;;12.90;75.00;;;;;;6279076;28;20736;-80
2023/10/04 06:55:47;;;;;;;5.73;4.50;;;12.90;75.10;;;;;;6280466;28;20265;-79
2023/10/04 06:58:50;;;;;;;4.37;4.00;;;13.00;75.00;;;;;;6284976;28;20420;-80
2023/10/04 07:01:55;;;;;;;6.53;4.70;;;13.20;74.80;;;;;;6281847;28;20245;-80
2023/10/04 07:04:58;;;;;;;9.33;5.33;;;13.10;74.00;;;;;;6277369;28;20366;-77
2023/10/04 07:08:04;;;;;;;5.17;4.50;;;13.10;74.00;;;;;;6287726;28;20644;-79
2023/10/04 07:11:07;;;;;;;5.60;4.50;;;13.30;74.00;;;;;;6280732;28;20751;-80
2023/10/04 07:14:10;;;;;;;7.57;4.87;;;13.30;73.60;;;;;;6276723;28;20245;-79
2023/10/04 07:17:19;;;;;;;7.03;4.33;;;13.30;73.40;;;;;;6285017;28;20241;-80
2023/10/04 07:20:24;;;;;;;6.70;4.50;;;13.40;73.50;;;;;;6275984;28;20340;-77
2023/10/04 07:23:27;;;;;;;10.10;4.70;;;13.50;73.20;;;;;;6283487;28;20879;-77
2023/10/04 07:26:45;;;;;;;7.70;4.63;;;13.50;72.80;;;;;;6278843;28;20237;-81
2023/10/04 07:29:48;;;;;;;7.97;4.57;;;13.50;72.90;;;;;;6284985;28;20861;-79
2023/10/04 07:32:53;;;;;;;8.73;4.73;;;13.50;73.20;;;;;;6280616;28;20387;-82
2023/10/04 07:35:56;;;;;;;6.17;4.30;;;13.60;72.70;;;;;;6273730;28;20246;-78
2023/10/04 07:38:59;;;;;;;9.60;4.60;;;13.60;72.80;;;;;;6281567;28;20394;-78
2023/10/04 07:42:03;;;;;;;7.53;4.23;;;13.60;72.50;;;;;;6281277;28;20237;-78
2023/10/04 07:45:09;;;;;;;6.17;4.43;;;13.80;72.70;;;;;;6279072;28;20248;-79
2023/10/04 07:48:15;;;;;;;7.90;4.50;;;13.90;72.40;;;;;;6264929;28;20262;-80
2023/10/04 07:51:19;;;;;;;9.27;4.77;;;13.90;72.10;;;;;;6282579;28;20314;-81
2023/10/04 07:54:22;;;;;;;8.30;4.73;;;13.90;72.20;;;;;;6283168;28;20233;-80
2023/10/04 07:57:26;;;;;;;5.57;4.43;;;13.90;72.20;;;;;;6286136;28;20363;-80
2023/10/04 08:00:30;;;;;;;7.33;4.87;;;13.90;72.30;;;;;;6288735;28;20720;-80
2023/10/04 08:03:35;;;;;;;5.03;4.33;;;13.90;72.50;;;;;;6285266;28;20241;-78
2023/10/04 08:06:39;;;;;;;9.77;4.50;;;13.90;72.20;;;;;;6279126;28;20251;-80
2023/10/04 08:09:43;;;;;;;8.13;4.90;;;13.90;72.10;;;;;;6289885;28;20318;-82
2023/10/04 08:12:46;;;;;;;7.47;4.20;;;13.90;72.10;;;;;;6288721;28;20263;-80
2023/10/04 08:15:51;;;;;;;10.10;4.70;;;14.00;72.00;;;;;;6285246;28;20254;-82
2023/10/04 08:18:56;;;;;;;4.83;4.40;;;14.20;71.70;;;;;;6287483;28;20723;-80
2023/10/04 08:22:00;;;;;;;8.27;4.13;;;14.30;71.70;;;;;;6283874;28;20225;-81
2023/10/04 08:25:03;;;;;;;5.97;4.80;;;14.50;71.00;;;;;;6281872;28;20283;-81
2023/10/04 08:28:17;;;;;;;4.70;4.20;;;14.50;70.50;;;;;;6288492;28;20287;-82
2023/10/04 08:31:22;;;;;;;5.50;4.40;;;14.50;71.10;;;;;;6280304;28;20248;-79
2023/10/04 08:34:27;;;;;;;10.13;4.93;;;14.60;70.60;;;;;;6283743;28;20238;-76
2023/10/04 08:37:33;;;;;;;6.07;4.37;;;14.60;70.70;;;;;;6275745;28;20241;-80
2023/10/04 08:40:39;;;;;;;7.33;4.20;;;14.70;70.80;;;;;;6286088;28;20604;-78
2023/10/04 08:43:43;;;;;;;6.23;4.20;;;14.70;70.30;;;;;;6287505;28;20241;-81
2023/10/04 08:46:48;;;;;;;6.20;4.00;;;14.70;70.20;;;;;;6289802;28;20260;-80
2023/10/04 08:49:56;;;;;;;6.23;4.43;;;14.70;70.50;;;;;;6286955;28;20320;-80
2023/10/04 08:53:04;;;;;;;5.77;4.50;;;14.80;70.10;;;;;;6283470;28;20299;-80
2023/10/04 08:56:12;;;;;;;7.93;4.47;;;14.80;70.00;;;;;;6289303;28;20230;-79
2023/10/04 08:59:17;;;;;;;10.67;4.10;;;14.90;69.50;;;;;;6279833;28;20732;-79
2023/10/04 09:02:23;;;;;;;6.13;4.20;;;15.00;69.30;;;;;;6289211;28;20284;-81
2023/10/04 09:05:32;;;;;;;9.63;4.47;;;15.00;69.60;;;;;;6276075;28;20384;-81
2023/10/04 09:08:35;;;;;;;5.50;4.20;;;14.90;69.70;;;;;;6284680;28;20237;-84
2023/10/04 09:11:38;;;;;;;8.20;4.47;;;15.00;69.40;;;;;;6288429;28;20225;-79
2023/10/04 09:14:41;;;;;;;4.10;3.70;;;15.20;69.20;;;;;;6280909;28;20233;-83
2023/10/04 09:17:47;;;;;;;7.17;3.97;;;15.30;68.90;;;;;;6281927;28;20244;-80
2023/10/04 09:20:51;;;;;;;6.10;4.13;;;15.30;69.40;;;;;;6284037;28;20757;-80
2023/10/04 09:24:09;;;;;;;4.90;4.40;;;15.50;68.60;;;;;;6288122;28;20291;-81
2023/10/04 09:27:16;;;;;;;7.97;4.50;;;15.40;68.90;;;;;;6277047;28;20237;-79
2023/10/04 09:30:23;;;;;;;7.60;4.30;;;15.20;69.00;;;;;;6284131;28;20621;-80
2023/10/04 09:33:28;;;;;;;7.40;4.27;;;15.20;68.90;;;;;;6280992;28;20230;-79
2023/10/04 09:36:34;;;;;;;7.93;3.93;;;15.30;68.40;;;;;;6280004;28;20238;-79
2023/10/04 09:39:37;;;;;;;8.03;4.10;;;15.30;68.80;;;;;;6283804;28;20249;-77
2023/10/04 09:42:49;;;;;;;6.77;4.53;;;15.20;68.70;;;;;;6284105;28;20670;-78
2023/10/04 09:45:57;;;;;;;4.87;4.17;;;15.20;68.60;;;;;;6287226;28;20290;-79
2023/10/04 09:49:06;;;;;;;9.73;4.00;;;15.30;68.60;;;;;;6282228;28;20912;-79
2023/10/04 09:52:12;;;;;;;4.50;4.00;;;15.60;68.20;;;;;;6286381;28;20229;-79
2023/10/04 09:55:17;;;;;;;4.43;3.90;;;15.80;66.90;;;;;;6282424;28;20244;-80
2023/10/04 09:58:24;;;;;;;4.43;4.00;;;16.00;67.00;;;;;;6287145;28;20236;-82
2023/10/04 10:01:30;;;;;;;6.37;4.23;;;15.80;66.70;;;;;;6285803;28;20326;-78
2023/10/04 10:04:37;;;;;;;4.90;4.30;;;16.00;67.00;;;;;;6284185;28;20242;-79
2023/10/04 10:07:42;;;;;;;7.57;4.20;;;15.90;66.50;;;;;;6286643;28;20233;-78
2023/10/04 10:10:47;;;;;;;5.23;3.80;;;16.00;66.40;;;;;;6284288;28;20226;-80
2023/10/04 10:13:50;;;;;;;5.20;3.93;;;16.10;66.10;;;;;;6284575;28;20372;-78
2023/10/04 10:16:54;;;;;;;8.50;4.30;;;16.00;66.10;;;;;;6287833;28;20249;-81
2023/10/04 10:19:58;;;;;;;4.80;3.30;;;15.90;66.50;;;;;;6279398;28;20687;-80
2023/10/04 10:23:13;;;;;;;5.33;4.13;;;15.90;66.10;;;;;;6281762;28;20858;-79
2023/10/04 10:26:18;;;;;;;4.30;3.37;;;16.10;65.90;;;;;;6281373;28;20924;-78
2023/10/04 10:29:22;;;;;;;3.97;3.63;;;16.20;64.60;;;;;;6287714;28;20229;-76
2023/10/04 10:32:25;;;;;;;8.70;3.80;;;16.40;64.30;;;;;;6309325;28;20241;-76
2023/10/04 10:35:59;;;;;;;5.33;3.80;;;16.50;64.20;;;;;;6291761;28;20617;-78
2023/10/04 10:39:24;;;;;;;6.30;3.67;;;16.50;65.00;;;;;;6296769;28;20256;-79
2023/10/04 10:42:29;;;;;;;5.43;3.73;;;16.50;64.50;;;;;;6298664;28;20233;-80
2023/10/04 10:45:33;;;;;;;4.93;4.00;;;16.30;66.00;;;;;;6297253;28;20377;-80
2023/10/04 10:48:36;;;;;;;4.90;4.00;;;16.00;67.10;;;;;;6298360;28;20237;-77
2023/10/04 10:51:42;;;;;;;5.27;4.33;;;16.00;67.60;;;;;;6301565;28;20232;-79
2023/10/04 10:54:47;;;;;;;7.57;4.47;;;15.80;68.30;;;;;;6296006;28;20774;-77
2023/10/04 10:57:50;;;;;;;5.43;4.10;;;15.80;69.00;;;;;;6295519;28;20229;-78
2023/10/04 11:00:56;;;;;;;4.40;3.60;;;15.80;68.00;;;;;;6298676;28;20233;-78
2023/10/04 11:03:59;;;;;;;8.93;4.07;;;15.90;67.70;;;;;;6304119;28;20233;-80
2023/10/04 11:07:03;;;;;;;6.27;4.00;;;15.80;67.30;;;;;;6298972;28;20720;-80
2023/10/04 11:10:08;;;;;;;6.63;3.90;;;15.90;66.60;;;;;;6305570;28;20232;-76
2023/10/04 11:13:18;;;;;;;5.97;3.70;;;16.00;67.00;;;;;;6298814;28;20240;-77
2023/10/04 11:16:21;;;;;;;4.17;3.80;;;16.00;66.00;;;;;;6301472;28;20248;-78
2023/10/04 11:19:25;;;;;;;4.47;4.17;;;16.10;66.20;;;;;;6288857;28;20284;-79
2023/10/04 11:22:29;;;;;;;6.93;3.50;;;16.20;65.60;;;;;;6289963;28;20885;-77
2023/10/04 11:25:34;;;;;;;5.73;3.60;;;16.30;65.00;;;;;;6288092;28;20263;-79
2023/10/04 11:28:37;;;;;;;6.00;4.00;;;16.40;65.00;;;;;;6288930;28;20237;-79
2023/10/04 11:31:43;;;;;;;6.73;3.93;;;16.40;65.30;;;;;;6285806;28;20245;-80
2023/10/04 11:34:49;;;;;;;4.80;4.00;;;16.20;65.40;;;;;;6286301;28;20233;-79
2023/10/04 11:37:52;;;;;;;6.13;3.93;;;16.10;65.80;;;;;;6284829;28;20236;-77
2023/10/04 11:40:57;;;;;;;6.70;4.23;;;16.10;66.50;;;;;;6284836;28;20233;-81
2023/10/04 11:44:02;;;;;;;6.33;3.90;;;16.30;66.30;;;;;;6291586;28;20252;-78
2023/10/04 11:47:08;;;;;;;6.23;4.27;;;16.40;65.40;;;;;;6291495;28;20591;-83
2023/10/04 11:50:13;;;;;;;5.77;3.83;;;16.60;64.30;;;;;;6283221;28;20242;-80
2023/10/04 11:53:31;;;;;;;6.30;3.90;;;16.70;64.00;;;;;;6282608;28;20242;-81
2023/10/04 11:56:42;;;;;;;6.07;4.17;;;16.80;63.60;;;;;;6269580;28;20278;-81
2023/10/04 11:59:45;;;;;;;5.80;4.13;;;16.90;63.20;;;;;;6268256;28;20238;-81
2023/10/04 12:02:48;;;;;;;7.23;4.00;;;16.80;63.50;;;;;;6274918;28;20347;-81
2023/10/04 12:05:51;;;;;;;9.83;4.13;;;16.70;63.20;;;;;;6278121;28;20237;-80
2023/10/04 12:08:55;;;;;;;6.47;4.20;;;16.50;63.70;;;;;;6279318;28;20289;-79
2023/10/04 12:12:01;;;;;;;6.70;4.37;;;16.40;64.00;;;;;;6291473;28;20237;-79
2023/10/04 12:15:07;;;;;;;7.73;4.53;;;16.30;64.10;;;;;;6287622;28;20249;-83
2023/10/04 12:18:15;;;;;;;7.90;5.27;;;16.20;64.80;;;;;;6275770;28;20316;-82
2023/10/04 12:21:19;;;;;;;5.47;4.07;;;16.10;65.90;;;;;;6267222;28;20838;-81
2023/10/04 12:24:22;;;;;;;5.30;3.97;;;16.10;65.90;;;;;;6271796;28;20349;-80
2023/10/04 12:27:27;;;;;;;7.00;4.40;;;16.10;66.20;;;;;;6276743;28;20280;-81
2023/10/04 12:30:31;;;;;;;8.20;4.63;;;16.10;66.40;;;;;;6281945;28;20244;-82
2023/10/04 12:33:35;;;;;;;4.47;4.07;;;16.20;66.50;;;;;;6282339;28;20233;-81
2023/10/04 12:36:39;;;;;;;7.43;3.87;;;16.20;65.90;;;;;;6279178;28;20233;-79
2023/10/04 12:39:58;;;;;;;6.63;4.10;;;16.10;65.10;;;;;;6275408;28;20225;-82
2023/10/04 12:43:02;;;;;;;8.20;5.10;;;16.20;65.00;;;;;;6283713;28;20275;-79
2023/10/04 12:46:06;;;;;;;6.80;4.53;;;16.20;64.40;;;;;;6286624;28;20238;-81
2023/10/04 12:49:10;;;;;;;5.67;4.30;;;16.20;64.50;;;;;;6282944;28;20235;-80
2023/10/04 12:52:13;;;;;;;5.57;3.93;;;16.20;64.90;;;;;;6272759;28;20290;-80
2023/10/04 12:55:16;;;;;;;5.70;4.07;;;16.30;65.80;;;;;;6286060;28;20244;-81
2023/10/04 12:58:22;;;;;;;9.57;4.83;;;16.60;65.50;;;;;;6280728;28;20344;-78
2023/10/04 13:01:25;;;;;;;6.07;4.27;;;16.70;64.10;;;;;;6275753;28;20276;-79
2023/10/04 13:04:29;;;;;;;4.37;4.03;;;16.60;64.00;;;;;;6281810;28;20874;-80
2023/10/04 13:07:33;;;;;;;5.10;4.30;;;16.60;64.40;;;;;;6286267;28;20245;-81
2023/10/04 13:10:37;;;;;;;5.20;4.23;;;16.70;62.80;;;;;;6277684;28;20724;-79
2023/10/04 13:13:42;;;;;;;7.13;4.23;;;16.80;62.60;;;;;;6287249;28;20407;-80
2023/10/04 13:16:46;;;;;;;4.37;3.90;;;16.90;61.40;;;;;;6280453;28;20249;-79
2023/10/04 13:19:49;;;;;;;5.23;4.10;;;17.20;61.70;;;;;;6275666;28;20242;-79
2023/10/04 13:22:52;;;;;;;4.37;3.97;;;17.40;61.50;;;;;;6279200;28;20277;-80
2023/10/04 13:25:56;;;;;;;3.97;3.60;;;17.40;60.40;;;;;;6281317;28;21438;-78
2023/10/04 13:29:02;;;;;;;5.23;4.60;;;17.20;60.50;;;;;;6277117;28;20229;-80
2023/10/04 13:32:07;;;;;;;9.23;4.33;;;17.00;61.10;;;;;;6272770;28;20238;-80
2023/10/04 13:35:10;;;;;;;6.57;4.20;;;16.90;61.60;;;;;;6283765;28;20730;-81
2023/10/04 13:38:17;;;;;;;9.77;4.17;;;16.80;62.00;;;;;;6280461;28;20834;-80
2023/10/04 13:41:22;;;;;;;5.27;4.10;;;16.60;62.40;;;;;;6278337;28;20256;-80
2023/10/04 13:44:26;;;;;;;9.67;4.53;;;16.60;62.50;;;;;;6282641;28;20750;-81
2023/10/04 13:47:29;;;;;;;4.63;4.20;;;16.60;63.10;;;;;;6282374;28;20332;-81
2023/10/04 13:50:33;;;;;;;6.80;4.50;;;16.60;62.80;;;;;;6292519;28;20232;-80
2023/10/04 13:53:37;;;;;;;8.37;4.20;;;16.70;62.90;;;;;;6288025;28;20663;-80
2023/10/04 13:56:42;;;;;;;5.20;4.40;;;17.00;62.20;;;;;;6277136;28;20252;-78
2023/10/04 13:59:46;;;;;;;6.07;4.07;;;17.30;61.20;;;;;;6280928;28;20323;-76
2023/10/04 14:02:50;;;;;;;8.23;4.50;;;17.20;61.70;;;;;;6280925;28;20273;-80
2023/10/04 14:06:00;;;;;;;5.57;4.13;;;17.20;61.70;;;;;;6283529;28;20244;-78
2023/10/04 14:09:11;;;;;;;5.63;4.53;;;17.40;61.50;;;;;;6284590;28;20229;-78
2023/10/04 14:12:14;;;;;;;5.87;4.10;;;17.40;61.00;;;;;;6285412;28;20229;-77
2023/10/04 14:15:24;;;;;;;5.77;4.30;;;17.40;61.60;;;;;;6285160;28;20367;-79
2023/10/04 14:18:29;;;;;;;7.40;4.20;;;17.40;62.00;;;;;;6283624;28;20319;-81
2023/10/04 14:21:32;;;;;;;9.70;4.40;;;17.50;61.80;;;;;;6282045;28;20450;-80
2023/10/04 14:24:35;;;;;;;4.63;4.17;;;17.30;61.80;;;;;;6275509;28;20775;-81
2023/10/04 14:27:38;;;;;;;7.33;4.50;;;17.20;62.30;;;;;;6280456;28;20239;-80
2023/10/04 14:30:46;;;;;;;9.47;4.53;;;17.00;62.50;;;;;;6284997;28;20244;-81
2023/10/04 14:33:49;;;;;;;5.53;4.50;;;17.10;62.60;;;;;;6272215;28;20241;-82
2023/10/04 14:36:53;;;;;;;4.47;4.17;;;17.00;61.70;;;;;;6283668;28;20632;-81
2023/10/04 14:39:58;;;;;;;6.40;4.30;;;17.00;61.40;;;;;;6278424;28;20241;-82
2023/10/04 14:43:01;;;;;;;6.33;4.53;;;17.10;61.10;;;;;;6275757;28;21129;-82
2023/10/04 14:46:08;;;;;;;5.53;4.40;;;17.20;61.00;;;;;;6289715;28;20351;-81
2023/10/04 14:49:11;;;;;;;5.87;4.53;;;17.20;60.40;;;;;;6284530;28;20260;-81
2023/10/04 14:52:14;;;;;;;6.97;4.70;;;17.20;60.20;;;;;;6280381;28;20889;-82
2023/10/04 14:55:19;;;;;;;8.47;4.30;;;17.00;60.40;;;;;;6277265;28;20829;-80
2023/10/04 14:58:22;;;;;;;8.50;4.90;;;17.00;61.00;;;;;;6285112;28;20244;-82
2023/10/04 15:01:27;;;;;;;7.00;4.67;;;17.00;61.30;;;;;;6281863;28;20700;-82
2023/10/04 15:04:30;;;;;;;5.83;5.00;;;17.00;61.40;;;;;;6264774;28;20237;-79
2023/10/04 15:07:33;;;;;;;5.03;4.57;;;16.90;61.40;;;;;;6289287;28;20233;-81
2023/10/04 15:10:37;;;;;;;6.30;4.90;;;16.80;61.90;;;;;;6289756;28;20229;-80
2023/10/04 15:13:40;;;;;;;5.37;4.50;;;16.60;62.40;;;;;;6284219;28;20325;-80
2023/10/04 15:16:45;;;;;;;7.87;4.77;;;16.50;62.60;;;;;;6291063;28;20241;-81
2023/10/04 15:19:48;;;;;;;7.87;5.57;;;16.40;63.10;;;;;;6275659;28;20311;-78
2023/10/04 15:22:52;;;;;;;5.77;5.23;;;16.40;62.60;;;;;;6285639;28;20233;-81
2023/10/04 15:25:55;;;;;;;5.53;5.00;;;16.30;63.20;;;;;;6278035;28;20237;-82
2023/10/04 15:29:02;;;;;;;9.60;5.20;;;16.40;63.20;;;;;;6285170;28;20244;-81
2023/10/04 15:32:07;;;;;;;7.00;5.47;;;16.40;63.90;;;;;;6281339;28;20275;-82
2023/10/04 15:35:13;;;;;;;6.10;5.13;;;16.20;63.70;;;;;;6281338;28;20240;-78
2023/10/04 15:38:16;;;;;;;5.63;5.23;;;16.10;63.90;;;;;;6285294;28;20239;-82
2023/10/04 15:41:19;;;;;;;8.03;4.90;;;16.20;63.90;;;;;;6285421;28;20225;-81
2023/10/04 15:44:25;;;;;;;5.93;5.17;;;16.20;63.90;;;;;;6288752;28;20242;-81
2023/10/04 15:47:30;;;;;;;6.73;5.50;;;16.10;64.10;;;;;;6284812;28;20592;-78
2023/10/04 15:50:33;;;;;;;6.60;5.90;;;16.10;64.10;;;;;;6283624;28;20241;-81
2023/10/04 15:53:36;;;;;;;6.23;5.50;;;16.00;64.40;;;;;;6290682;28;20245;-76
2023/10/04 15:56:40;;;;;;;7.87;5.50;;;16.00;64.30;;;;;;6289041;28;20409;-77
2023/10/04 15:59:44;;;;;;;5.13;4.83;;;16.00;64.40;;;;;;6282254;28;20311;-76
2023/10/04 16:02:50;;;;;;;6.27;5.57;;;16.00;63.90;;;;;;6278656;28;20851;-77